sensor_id;sensor_type;location;lat;lon;timestamp;P1;durP1;ratioP1;P2;durP2;ratioP2
705;SDS011;21234;48.690;9.016;2023-04-06T00:00:07;8.17;;;6.60;;
705;SDS011;21234;48.690;9.016;2023-04-06T00:02:36;9.90;;;6.07;;
705;SDS011;21234;48.690;9.016;2023-04-06T00:05:04;8.10;;;6.87;;
705;SDS011;21234;48.690;9.016;2023-04-06T00:07:32;9.67;;;6.53;;
705;SDS011;21234;48.690;9.016;2023-04-06T00:10:00;12.47;;;5.63;;
705;SDS011;21234;48.690;9.016;2023-04-06T00:12:26;7.20;;;5.00;;
705;SDS011;21234;48.690;9.016;2023-04-06T00:14:53;7.20;;;4.87;;
705;SDS011;21234;48.690;9.016;2023-04-06T00:17:20;9.73;;;5.20;;
705;SDS011;21234;48.690;9.016;2023-04-06T00:19:47;6.13;;;5.50;;
705;SDS011;21234;48.690;9.016;2023-04-06T00:22:15;7.40;;;5.40;;
705;SDS011;21234;48.690;9.016;2023-04-06T00:24:42;7.90;;;5.53;;
705;SDS011;21234;48.690;9.016;2023-04-06T00:27:09;11.67;;;6.60;;
705;SDS011;21234;48.690;9.016;2023-04-06T00:29:35;8.50;;;6.10;;
705;SDS011;21234;48.690;9.016;2023-04-06T00:32:03;7.60;;;6.03;;
705;SDS011;21234;48.690;9.016;2023-04-06T00:34:30;7.80;;;5.43;;
705;SDS011;21234;48.690;9.016;2023-04-06T00:36:57;10.07;;;7.60;;
705;SDS011;21234;48.690;9.016;2023-04-06T00:39:25;12.80;;;8.50;;
705;SDS011;21234;48.690;9.016;2023-04-06T00:41:52;11.30;;;8.80;;
705;SDS011;21234;48.690;9.016;2023-04-06T00:44:20;8.43;;;7.63;;
705;SDS011;21234;48.690;9.016;2023-04-06T00:46:47;12.40;;;8.00;;
705;SDS011;21234;48.690;9.016;2023-04-06T00:49:14;11.07;;;7.90;;
705;SDS011;21234;48.690;9.016;2023-04-06T00:51:42;8.70;;;7.43;;
705;SDS011;21234;48.690;9.016;2023-04-06T00:54:09;9.37;;;7.57;;
705;SDS011;21234;48.690;9.016;2023-04-06T00:56:37;12.63;;;8.47;;
705;SDS011;21234;48.690;9.016;2023-04-06T00:59:04;8.30;;;6.70;;
705;SDS011;21234;48.690;9.016;2023-04-06T01:01:30;8.60;;;5.87;;
705;SDS011;21234;48.690;9.016;2023-04-06T01:03:58;8.90;;;6.87;;
705;SDS011;21234;48.690;9.016;2023-04-06T01:06:25;9.47;;;6.73;;
705;SDS011;21234;48.690;9.016;2023-04-06T01:08:52;8.60;;;6.00;;
705;SDS011;21234;48.690;9.016;2023-04-06T01:11:18;7.27;;;6.57;;
705;SDS011;21234;48.690;9.016;2023-04-06T01:13:47;6.97;;;6.27;;
705;SDS011;21234;48.690;9.016;2023-04-06T01:16:14;9.40;;;5.83;;
705;SDS011;21234;48.690;9.016;2023-04-06T01:18:41;8.90;;;7.00;;
705;SDS011;21234;48.690;9.016;2023-04-06T01:21:09;9.87;;;6.23;;
705;SDS011;21234;48.690;9.016;2023-04-06T01:23:43;8.00;;;6.10;;
705;SDS011;21234;48.690;9.016;2023-04-06T01:26:10;9.70;;;7.17;;
705;SDS011;21234;48.690;9.016;2023-04-06T01:28:37;8.50;;;6.47;;
705;SDS011;21234;48.690;9.016;2023-04-06T01:31:04;6.07;;;5.50;;
705;SDS011;21234;48.690;9.016;2023-04-06T01:33:32;9.70;;;6.50;;
705;SDS011;21234;48.690;9.016;2023-04-06T01:35:59;10.20;;;6.90;;
705;SDS011;21234;48.690;9.016;2023-04-06T01:38:26;7.70;;;6.90;;
705;SDS011;21234;48.690;9.016;2023-04-06T01:40:54;7.63;;;6.67;;
705;SDS011;21234;48.690;9.016;2023-04-06T01:43:21;11.83;;;7.30;;
705;SDS011;21234;48.690;9.016;2023-04-06T01:45:48;6.63;;;5.50;;
705;SDS011;21234;48.690;9.016;2023-04-06T01:48:16;8.30;;;5.53;;
705;SDS011;21234;48.690;9.016;2023-04-06T01:50:43;10.80;;;7.27;;
705;SDS011;21234;48.690;9.016;2023-04-06T01:53:10;7.70;;;5.83;;
705;SDS011;21234;48.690;9.016;2023-04-06T01:55:37;9.00;;;7.03;;
705;SDS011;21234;48.690;9.016;2023-04-06T01:58:05;11.73;;;6.20;;
705;SDS011;21234;48.690;9.016;2023-04-06T02:00:32;8.90;;;5.93;;
705;SDS011;21234;48.690;9.016;2023-04-06T02:02:59;9.60;;;6.37;;
705;SDS011;21234;48.690;9.016;2023-04-06T02:05:25;8.57;;;5.90;;
705;SDS011;21234;48.690;9.016;2023-04-06T02:07:53;7.70;;;6.90;;
705;SDS011;21234;48.690;9.016;2023-04-06T02:10:19;8.80;;;6.87;;
705;SDS011;21234;48.690;9.016;2023-04-06T02:12:46;9.83;;;7.60;;
705;SDS011;21234;48.690;9.016;2023-04-06T02:15:14;20.73;;;7.20;;
705;SDS011;21234;48.690;9.016;2023-04-06T02:17:41;8.20;;;6.17;;
705;SDS011;21234;48.690;9.016;2023-04-06T02:20:09;10.70;;;6.00;;
705;SDS011;21234;48.690;9.016;2023-04-06T02:22:36;7.43;;;6.63;;
705;SDS011;21234;48.690;9.016;2023-04-06T02:25:03;7.43;;;6.30;;
705;SDS011;21234;48.690;9.016;2023-04-06T02:27:30;14.10;;;7.37;;
705;SDS011;21234;48.690;9.016;2023-04-06T02:29:57;10.93;;;7.07;;
705;SDS011;21234;48.690;9.016;2023-04-06T02:32:25;8.90;;;6.30;;
705;SDS011;21234;48.690;9.016;2023-04-06T02:34:52;11.37;;;7.13;;
705;SDS011;21234;48.690;9.016;2023-04-06T02:37:18;9.30;;;7.43;;
705;SDS011;21234;48.690;9.016;2023-04-06T02:39:47;7.70;;;6.40;;
705;SDS011;21234;48.690;9.016;2023-04-06T02:42:14;9.03;;;6.10;;
705;SDS011;21234;48.690;9.016;2023-04-06T02:44:41;12.30;;;6.90;;
705;SDS011;21234;48.690;9.016;2023-04-06T02:47:08;9.80;;;8.20;;
705;SDS011;21234;48.690;9.016;2023-04-06T02:49:36;8.53;;;7.73;;
705;SDS011;21234;48.690;9.016;2023-04-06T02:52:03;10.00;;;7.07;;
705;SDS011;21234;48.690;9.016;2023-04-06T02:54:30;6.80;;;6.00;;
705;SDS011;21234;48.690;9.016;2023-04-06T02:56:57;7.80;;;6.73;;
705;SDS011;21234;48.690;9.016;2023-04-06T02:59:24;10.43;;;6.60;;
705;SDS011;21234;48.690;9.016;2023-04-06T03:01:50;12.03;;;7.60;;
705;SDS011;21234;48.690;9.016;2023-04-06T03:04:17;8.33;;;7.53;;
705;SDS011;21234;48.690;9.016;2023-04-06T03:06:46;7.27;;;6.10;;
705;SDS011;21234;48.690;9.016;2023-04-06T03:09:12;8.97;;;6.10;;
705;SDS011;21234;48.690;9.016;2023-04-06T03:11:40;9.53;;;6.37;;
705;SDS011;21234;48.690;9.016;2023-04-06T03:14:07;9.03;;;6.53;;
705;SDS011;21234;48.690;9.016;2023-04-06T03:16:33;8.50;;;6.40;;
705;SDS011;21234;48.690;9.016;2023-04-06T03:19:00;9.17;;;6.33;;
705;SDS011;21234;48.690;9.016;2023-04-06T03:21:27;8.33;;;6.33;;
705;SDS011;21234;48.690;9.016;2023-04-06T03:23:55;10.10;;;7.10;;
705;SDS011;21234;48.690;9.016;2023-04-06T03:26:22;10.83;;;6.67;;
705;SDS011;21234;48.690;9.016;2023-04-06T03:28:49;10.07;;;7.40;;
705;SDS011;21234;48.690;9.016;2023-04-06T03:31:15;7.63;;;6.37;;
705;SDS011;21234;48.690;9.016;2023-04-06T03:33:42;6.57;;;5.90;;
705;SDS011;21234;48.690;9.016;2023-04-06T03:36:09;9.63;;;6.80;;
705;SDS011;21234;48.690;9.016;2023-04-06T03:38:36;7.70;;;6.90;;
705;SDS011;21234;48.690;9.016;2023-04-06T03:41:04;9.50;;;6.90;;
705;SDS011;21234;48.690;9.016;2023-04-06T03:43:31;11.47;;;6.47;;
705;SDS011;21234;48.690;9.016;2023-04-06T03:45:57;8.90;;;7.30;;
705;SDS011;21234;48.690;9.016;2023-04-06T03:48:24;10.20;;;7.20;;
705;SDS011;21234;48.690;9.016;2023-04-06T03:50:51;9.87;;;7.13;;
705;SDS011;21234;48.690;9.016;2023-04-06T03:53:18;8.20;;;5.70;;
705;SDS011;21234;48.690;9.016;2023-04-06T03:55:45;7.90;;;6.60;;
705;SDS011;21234;48.690;9.016;2023-04-06T03:58:13;7.97;;;6.97;;
705;SDS011;21234;48.690;9.016;2023-04-06T04:00:40;7.97;;;7.17;;
705;SDS011;21234;48.690;9.016;2023-04-06T04:03:07;7.80;;;6.63;;
705;SDS011;21234;48.690;9.016;2023-04-06T04:05:33;13.03;;;7.40;;
705;SDS011;21234;48.690;9.016;2023-04-06T04:08:00;8.30;;;6.47;;
705;SDS011;21234;48.690;9.016;2023-04-06T04:10:27;8.63;;;7.53;;
705;SDS011;21234;48.690;9.016;2023-04-06T04:12:54;7.47;;;6.77;;
705;SDS011;21234;48.690;9.016;2023-04-06T04:15:22;8.83;;;7.60;;
705;SDS011;21234;48.690;9.016;2023-04-06T04:17:49;9.73;;;6.70;;
705;SDS011;21234;48.690;9.016;2023-04-06T04:20:15;10.93;;;7.83;;
705;SDS011;21234;48.690;9.016;2023-04-06T04:22:42;8.70;;;6.53;;
705;SDS011;21234;48.690;9.016;2023-04-06T04:25:09;9.27;;;6.60;;
705;SDS011;21234;48.690;9.016;2023-04-06T04:27:36;7.50;;;6.57;;
705;SDS011;21234;48.690;9.016;2023-04-06T04:30:03;7.77;;;6.93;;
705;SDS011;21234;48.690;9.016;2023-04-06T04:32:32;11.30;;;7.47;;
705;SDS011;21234;48.690;9.016;2023-04-06T04:34:59;7.80;;;6.90;;
705;SDS011;21234;48.690;9.016;2023-04-06T04:37:26;10.50;;;7.20;;
705;SDS011;21234;48.690;9.016;2023-04-06T04:39:53;9.70;;;7.70;;
705;SDS011;21234;48.690;9.016;2023-04-06T04:42:20;9.13;;;6.83;;
705;SDS011;21234;48.690;9.016;2023-04-06T04:44:47;9.10;;;6.77;;
705;SDS011;21234;48.690;9.016;2023-04-06T04:47:13;9.77;;;7.30;;
705;SDS011;21234;48.690;9.016;2023-04-06T04:49:42;17.10;;;8.00;;
705;SDS011;21234;48.690;9.016;2023-04-06T04:52:08;9.53;;;7.80;;
705;SDS011;21234;48.690;9.016;2023-04-06T04:54:35;10.93;;;8.03;;
705;SDS011;21234;48.690;9.016;2023-04-06T04:57:02;10.80;;;7.70;;
705;SDS011;21234;48.690;9.016;2023-04-06T04:59:29;10.60;;;6.93;;
705;SDS011;21234;48.690;9.016;2023-04-06T05:01:56;8.20;;;7.03;;
705;SDS011;21234;48.690;9.016;2023-04-06T05:04:23;11.40;;;6.30;;
705;SDS011;21234;48.690;9.016;2023-04-06T05:06:51;13.93;;;8.93;;
705;SDS011;21234;48.690;9.016;2023-04-06T05:09:29;12.80;;;7.77;;
705;SDS011;21234;48.690;9.016;2023-04-06T05:11:56;10.80;;;6.33;;
705;SDS011;21234;48.690;9.016;2023-04-06T05:14:23;9.83;;;7.47;;
705;SDS011;21234;48.690;9.016;2023-04-06T05:16:50;12.23;;;9.23;;
705;SDS011;21234;48.690;9.016;2023-04-06T05:19:16;13.87;;;9.90;;
705;SDS011;21234;48.690;9.016;2023-04-06T05:21:43;14.93;;;10.30;;
705;SDS011;21234;48.690;9.016;2023-04-06T05:24:11;13.83;;;9.60;;
705;SDS011;21234;48.690;9.016;2023-04-06T05:26:39;14.03;;;9.10;;
705;SDS011;21234;48.690;9.016;2023-04-06T05:29:05;12.60;;;8.20;;
705;SDS011;21234;48.690;9.016;2023-04-06T05:31:32;14.83;;;8.20;;
705;SDS011;21234;48.690;9.016;2023-04-06T05:33:59;12.20;;;7.97;;
705;SDS011;21234;48.690;9.016;2023-04-06T05:36:26;11.93;;;7.33;;
705;SDS011;21234;48.690;9.016;2023-04-06T05:38:53;10.40;;;7.60;;
705;SDS011;21234;48.690;9.016;2023-04-06T05:41:22;11.10;;;9.03;;
705;SDS011;21234;48.690;9.016;2023-04-06T05:43:49;8.87;;;7.97;;
705;SDS011;21234;48.690;9.016;2023-04-06T05:46:16;21.53;;;10.93;;
705;SDS011;21234;48.690;9.016;2023-04-06T05:48:43;25.37;;;11.60;;
705;SDS011;21234;48.690;9.016;2023-04-06T05:51:10;24.60;;;10.90;;
705;SDS011;21234;48.690;9.016;2023-04-06T05:53:37;19.13;;;12.27;;
705;SDS011;21234;48.690;9.016;2023-04-06T05:56:04;15.27;;;9.97;;
705;SDS011;21234;48.690;9.016;2023-04-06T05:58:33;16.13;;;10.53;;
705;SDS011;21234;48.690;9.016;2023-04-06T06:01:00;14.60;;;8.17;;
705;SDS011;21234;48.690;9.016;2023-04-06T06:03:27;14.23;;;9.60;;
705;SDS011;21234;48.690;9.016;2023-04-06T06:05:59;21.50;;;11.23;;
705;SDS011;21234;48.690;9.016;2023-04-06T06:08:26;15.53;;;11.03;;
705;SDS011;21234;48.690;9.016;2023-04-06T06:10:53;15.73;;;10.17;;
705;SDS011;21234;48.690;9.016;2023-04-06T06:13:20;9.00;;;7.50;;
705;SDS011;21234;48.690;9.016;2023-04-06T06:15:48;13.40;;;10.70;;
705;SDS011;21234;48.690;9.016;2023-04-06T06:18:16;14.20;;;10.87;;
705;SDS011;21234;48.690;9.016;2023-04-06T06:20:43;14.80;;;9.70;;
705;SDS011;21234;48.690;9.016;2023-04-06T06:23:11;16.00;;;8.97;;
705;SDS011;21234;48.690;9.016;2023-04-06T06:25:38;14.17;;;8.57;;
705;SDS011;21234;48.690;9.016;2023-04-06T06:28:05;9.20;;;8.30;;
705;SDS011;21234;48.690;9.016;2023-04-06T06:30:32;11.13;;;9.23;;
705;SDS011;21234;48.690;9.016;2023-04-06T06:33:01;10.20;;;7.53;;
705;SDS011;21234;48.690;9.016;2023-04-06T06:35:28;14.00;;;9.40;;
705;SDS011;21234;48.690;9.016;2023-04-06T06:37:55;10.87;;;9.07;;
705;SDS011;21234;48.690;9.016;2023-04-06T06:40:22;11.80;;;9.10;;
705;SDS011;21234;48.690;9.016;2023-04-06T06:42:49;9.90;;;7.90;;
705;SDS011;21234;48.690;9.016;2023-04-06T06:45:17;11.47;;;8.97;;
705;SDS011;21234;48.690;9.016;2023-04-06T06:47:44;10.67;;;8.80;;
705;SDS011;21234;48.690;9.016;2023-04-06T06:50:12;12.67;;;8.53;;
705;SDS011;21234;48.690;9.016;2023-04-06T06:52:39;15.53;;;9.23;;
705;SDS011;21234;48.690;9.016;2023-04-06T06:55:06;10.70;;;7.93;;
705;SDS011;21234;48.690;9.016;2023-04-06T06:57:34;9.00;;;8.07;;
705;SDS011;21234;48.690;9.016;2023-04-06T07:00:01;9.73;;;8.00;;
705;SDS011;21234;48.690;9.016;2023-04-06T07:02:28;9.00;;;8.20;;
705;SDS011;21234;48.690;9.016;2023-04-06T07:04:55;8.37;;;6.07;;
705;SDS011;21234;48.690;9.016;2023-04-06T07:07:23;12.80;;;7.40;;
705;SDS011;21234;48.690;9.016;2023-04-06T07:09:50;10.93;;;7.13;;
705;SDS011;21234;48.690;9.016;2023-04-06T07:12:17;9.40;;;7.77;;
705;SDS011;21234;48.690;9.016;2023-04-06T07:14:44;10.93;;;8.90;;
705;SDS011;21234;48.690;9.016;2023-04-06T07:17:11;9.10;;;7.60;;
705;SDS011;21234;48.690;9.016;2023-04-06T07:19:38;15.47;;;8.83;;
705;SDS011;21234;48.690;9.016;2023-04-06T07:22:05;11.77;;;8.00;;
705;SDS011;21234;48.690;9.016;2023-04-06T07:24:34;8.93;;;7.30;;
705;SDS011;21234;48.690;9.016;2023-04-06T07:27:00;11.20;;;6.93;;
705;SDS011;21234;48.690;9.016;2023-04-06T07:29:27;8.23;;;7.17;;
705;SDS011;21234;48.690;9.016;2023-04-06T07:31:55;8.40;;;7.43;;
705;SDS011;21234;48.690;9.016;2023-04-06T07:34:22;8.67;;;7.87;;
705;SDS011;21234;48.690;9.016;2023-04-06T07:36:48;11.93;;;8.53;;
705;SDS011;21234;48.690;9.016;2023-04-06T07:39:18;8.90;;;7.70;;
705;SDS011;21234;48.690;9.016;2023-04-06T07:41:46;9.13;;;7.57;;
705;SDS011;21234;48.690;9.016;2023-04-06T07:44:13;10.50;;;8.80;;
705;SDS011;21234;48.690;9.016;2023-04-06T07:46:40;8.93;;;7.73;;
705;SDS011;21234;48.690;9.016;2023-04-06T07:49:07;31.30;;;12.73;;
705;SDS011;21234;48.690;9.016;2023-04-06T07:51:35;16.40;;;7.53;;
705;SDS011;21234;48.690;9.016;2023-04-06T07:54:02;14.37;;;7.93;;
705;SDS011;21234;48.690;9.016;2023-04-06T07:56:29;13.37;;;7.60;;
705;SDS011;21234;48.690;9.016;2023-04-06T07:58:58;7.60;;;6.80;;
705;SDS011;21234;48.690;9.016;2023-04-06T08:01:24;12.90;;;8.30;;
705;SDS011;21234;48.690;9.016;2023-04-06T08:03:52;7.73;;;6.97;;
705;SDS011;21234;48.690;9.016;2023-04-06T08:06:20;8.73;;;7.13;;
705;SDS011;21234;48.690;9.016;2023-04-06T08:08:47;9.00;;;7.37;;
705;SDS011;21234;48.690;9.016;2023-04-06T08:11:14;25.90;;;9.97;;
705;SDS011;21234;48.690;9.016;2023-04-06T08:13:41;10.43;;;6.97;;
705;SDS011;21234;48.690;9.016;2023-04-06T08:16:10;8.70;;;6.90;;
705;SDS011;21234;48.690;9.016;2023-04-06T08:18:36;9.83;;;7.00;;
705;SDS011;21234;48.690;9.016;2023-04-06T08:21:03;7.50;;;6.60;;
705;SDS011;21234;48.690;9.016;2023-04-06T08:23:30;11.37;;;8.47;;
705;SDS011;21234;48.690;9.016;2023-04-06T08:25:57;9.73;;;7.47;;
705;SDS011;21234;48.690;9.016;2023-04-06T08:28:23;9.03;;;7.83;;
705;SDS011;21234;48.690;9.016;2023-04-06T08:30:50;11.00;;;7.53;;
705;SDS011;21234;48.690;9.016;2023-04-06T08:33:18;11.73;;;8.20;;
705;SDS011;21234;48.690;9.016;2023-04-06T08:35:45;9.43;;;7.50;;
705;SDS011;21234;48.690;9.016;2023-04-06T08:38:12;7.43;;;6.73;;
705;SDS011;21234;48.690;9.016;2023-04-06T08:40:39;9.03;;;6.90;;
705;SDS011;21234;48.690;9.016;2023-04-06T08:43:09;8.23;;;6.33;;
705;SDS011;21234;48.690;9.016;2023-04-06T08:45:40;10.93;;;7.60;;
705;SDS011;21234;48.690;9.016;2023-04-06T08:48:07;8.40;;;7.60;;
705;SDS011;21234;48.690;9.016;2023-04-06T08:50:37;8.67;;;7.83;;
705;SDS011;21234;48.690;9.016;2023-04-06T08:53:05;10.87;;;7.73;;
705;SDS011;21234;48.690;9.016;2023-04-06T08:55:33;10.13;;;6.50;;
705;SDS011;21234;48.690;9.016;2023-04-06T08:58:00;7.30;;;5.70;;
705;SDS011;21234;48.690;9.016;2023-04-06T09:00:28;6.70;;;6.03;;
705;SDS011;21234;48.690;9.016;2023-04-06T09:02:55;6.90;;;5.60;;
705;SDS011;21234;48.690;9.016;2023-04-06T09:05:23;7.50;;;5.83;;
705;SDS011;21234;48.690;9.016;2023-04-06T09:07:53;6.70;;;5.80;;
705;SDS011;21234;48.690;9.016;2023-04-06T09:10:20;9.23;;;7.07;;
705;SDS011;21234;48.690;9.016;2023-04-06T09:12:48;7.10;;;6.40;;
705;SDS011;21234;48.690;9.016;2023-04-06T09:15:19;9.10;;;6.50;;
705;SDS011;21234;48.690;9.016;2023-04-06T09:17:46;7.00;;;5.53;;
705;SDS011;21234;48.690;9.016;2023-04-06T09:20:13;7.00;;;5.80;;
705;SDS011;21234;48.690;9.016;2023-04-06T09:22:42;5.77;;;4.70;;
705;SDS011;21234;48.690;9.016;2023-04-06T09:25:17;9.83;;;6.30;;
705;SDS011;21234;48.690;9.016;2023-04-06T09:27:45;6.17;;;5.57;;
705;SDS011;21234;48.690;9.016;2023-04-06T09:30:13;5.03;;;4.60;;
705;SDS011;21234;48.690;9.016;2023-04-06T09:32:48;6.50;;;5.80;;
705;SDS011;21234;48.690;9.016;2023-04-06T09:35:16;6.60;;;5.60;;
705;SDS011;21234;48.690;9.016;2023-04-06T09:37:45;8.83;;;5.90;;
705;SDS011;21234;48.690;9.016;2023-04-06T09:40:14;6.60;;;5.50;;
705;SDS011;21234;48.690;9.016;2023-04-06T09:42:44;6.60;;;5.50;;
705;SDS011;21234;48.690;9.016;2023-04-06T09:45:12;7.73;;;5.77;;
705;SDS011;21234;48.690;9.016;2023-04-06T09:47:39;6.43;;;5.60;;
705;SDS011;21234;48.690;9.016;2023-04-06T09:50:09;7.30;;;6.03;;
705;SDS011;21234;48.690;9.016;2023-04-06T09:52:38;8.47;;;5.20;;
705;SDS011;21234;48.690;9.016;2023-04-06T09:55:08;6.30;;;5.00;;
705;SDS011;21234;48.690;9.016;2023-04-06T09:57:40;5.57;;;5.07;;
705;SDS011;21234;48.690;9.016;2023-04-06T10:00:12;7.27;;;5.73;;
705;SDS011;21234;48.690;9.016;2023-04-06T10:02:45;7.17;;;5.03;;
705;SDS011;21234;48.690;9.016;2023-04-06T10:05:18;6.50;;;5.20;;
705;SDS011;21234;48.690;9.016;2023-04-06T10:07:49;9.77;;;5.47;;
705;SDS011;21234;48.690;9.016;2023-04-06T10:10:19;6.77;;;5.30;;
705;SDS011;21234;48.690;9.016;2023-04-06T10:12:48;7.50;;;5.97;;
705;SDS011;21234;48.690;9.016;2023-04-06T10:15:15;6.73;;;6.20;;
705;SDS011;21234;48.690;9.016;2023-04-06T10:17:42;6.00;;;4.97;;
705;SDS011;21234;48.690;9.016;2023-04-06T10:20:10;6.37;;;5.27;;
705;SDS011;21234;48.690;9.016;2023-04-06T10:22:43;7.40;;;5.40;;
705;SDS011;21234;48.690;9.016;2023-04-06T10:25:25;7.57;;;5.87;;
705;SDS011;21234;48.690;9.016;2023-04-06T10:28:00;5.73;;;4.80;;
705;SDS011;21234;48.690;9.016;2023-04-06T10:30:27;5.93;;;4.67;;
705;SDS011;21234;48.690;9.016;2023-04-06T10:32:55;6.40;;;5.20;;
705;SDS011;21234;48.690;9.016;2023-04-06T10:35:22;7.10;;;4.40;;
705;SDS011;21234;48.690;9.016;2023-04-06T10:37:51;7.53;;;5.57;;
705;SDS011;21234;48.690;9.016;2023-04-06T10:40:19;5.60;;;5.00;;
705;SDS011;21234;48.690;9.016;2023-04-06T10:42:51;4.60;;;4.03;;
705;SDS011;21234;48.690;9.016;2023-04-06T10:45:23;5.80;;;5.10;;
705;SDS011;21234;48.690;9.016;2023-04-06T10:47:52;6.20;;;5.63;;
705;SDS011;21234;48.690;9.016;2023-04-06T10:50:19;6.40;;;5.50;;
705;SDS011;21234;48.690;9.016;2023-04-06T10:52:47;5.53;;;4.83;;
705;SDS011;21234;48.690;9.016;2023-04-06T10:55:25;6.97;;;5.40;;
705;SDS011;21234;48.690;9.016;2023-04-06T10:57:53;6.27;;;4.83;;
705;SDS011;21234;48.690;9.016;2023-04-06T11:00:20;7.63;;;4.90;;
705;SDS011;21234;48.690;9.016;2023-04-06T11:02:48;5.77;;;5.07;;
705;SDS011;21234;48.690;9.016;2023-04-06T11:05:15;6.87;;;5.10;;
705;SDS011;21234;48.690;9.016;2023-04-06T11:07:43;5.50;;;5.00;;
705;SDS011;21234;48.690;9.016;2023-04-06T11:10:10;5.23;;;4.73;;
705;SDS011;21234;48.690;9.016;2023-04-06T11:12:37;5.53;;;4.07;;
705;SDS011;21234;48.690;9.016;2023-04-06T11:15:05;7.03;;;3.93;;
705;SDS011;21234;48.690;9.016;2023-04-06T11:17:33;5.83;;;5.20;;
705;SDS011;21234;48.690;9.016;2023-04-06T11:20:04;6.33;;;5.03;;
705;SDS011;21234;48.690;9.016;2023-04-06T11:22:35;6.67;;;5.47;;
705;SDS011;21234;48.690;9.016;2023-04-06T11:25:05;6.10;;;5.50;;
705;SDS011;21234;48.690;9.016;2023-04-06T11:27:33;7.47;;;5.50;;
705;SDS011;21234;48.690;9.016;2023-04-06T11:30:01;9.20;;;5.20;;
705;SDS011;21234;48.690;9.016;2023-04-06T11:32:28;5.97;;;4.70;;
705;SDS011;21234;48.690;9.016;2023-04-06T11:34:57;9.63;;;5.67;;
705;SDS011;21234;48.690;9.016;2023-04-06T11:37:27;6.70;;;5.50;;
705;SDS011;21234;48.690;9.016;2023-04-06T11:39:54;8.27;;;5.83;;
705;SDS011;21234;48.690;9.016;2023-04-06T11:42:22;6.53;;;5.43;;
705;SDS011;21234;48.690;9.016;2023-04-06T11:44:50;5.43;;;4.53;;
705;SDS011;21234;48.690;9.016;2023-04-06T11:47:18;6.07;;;4.77;;
705;SDS011;21234;48.690;9.016;2023-04-06T11:49:45;5.67;;;5.10;;
705;SDS011;21234;48.690;9.016;2023-04-06T11:52:16;7.30;;;5.13;;
705;SDS011;21234;48.690;9.016;2023-04-06T11:54:45;6.77;;;5.90;;
705;SDS011;21234;48.690;9.016;2023-04-06T11:57:13;5.80;;;4.50;;
705;SDS011;21234;48.690;9.016;2023-04-06T11:59:42;7.60;;;5.43;;
705;SDS011;21234;48.690;9.016;2023-04-06T12:02:09;6.93;;;6.10;;
705;SDS011;21234;48.690;9.016;2023-04-06T12:04:36;6.30;;;5.10;;
705;SDS011;21234;48.690;9.016;2023-04-06T12:07:03;7.67;;;5.10;;
705;SDS011;21234;48.690;9.016;2023-04-06T12:09:30;4.87;;;4.10;;
705;SDS011;21234;48.690;9.016;2023-04-06T12:12:01;6.30;;;5.70;;
705;SDS011;21234;48.690;9.016;2023-04-06T12:14:27;6.63;;;5.40;;
705;SDS011;21234;48.690;9.016;2023-04-06T12:16:55;5.77;;;5.27;;
705;SDS011;21234;48.690;9.016;2023-04-06T12:19:22;6.93;;;6.03;;
705;SDS011;21234;48.690;9.016;2023-04-06T12:21:51;8.57;;;6.47;;
705;SDS011;21234;48.690;9.016;2023-04-06T12:24:18;6.53;;;5.50;;
705;SDS011;21234;48.690;9.016;2023-04-06T12:26:45;6.20;;;5.30;;
705;SDS011;21234;48.690;9.016;2023-04-06T12:29:13;6.93;;;6.13;;
705;SDS011;21234;48.690;9.016;2023-04-06T12:31:40;7.77;;;5.83;;
705;SDS011;21234;48.690;9.016;2023-04-06T12:34:09;6.30;;;5.67;;
705;SDS011;21234;48.690;9.016;2023-04-06T12:36:36;7.03;;;6.13;;
705;SDS011;21234;48.690;9.016;2023-04-06T12:39:04;6.70;;;5.73;;
705;SDS011;21234;48.690;9.016;2023-04-06T12:41:31;6.70;;;6.00;;
705;SDS011;21234;48.690;9.016;2023-04-06T12:43:58;7.70;;;5.60;;
705;SDS011;21234;48.690;9.016;2023-04-06T12:46:26;6.80;;;5.97;;
705;SDS011;21234;48.690;9.016;2023-04-06T12:48:55;6.90;;;5.77;;
705;SDS011;21234;48.690;9.016;2023-04-06T12:51:22;11.73;;;6.50;;
705;SDS011;21234;48.690;9.016;2023-04-06T12:53:50;9.70;;;5.93;;
705;SDS011;21234;48.690;9.016;2023-04-06T12:56:17;5.67;;;5.07;;
705;SDS011;21234;48.690;9.016;2023-04-06T12:58:46;6.50;;;5.00;;
705;SDS011;21234;48.690;9.016;2023-04-06T13:01:13;5.93;;;5.00;;
705;SDS011;21234;48.690;9.016;2023-04-06T13:03:42;5.90;;;5.17;;
705;SDS011;21234;48.690;9.016;2023-04-06T13:06:09;7.97;;;6.23;;
705;SDS011;21234;48.690;9.016;2023-04-06T13:08:37;5.50;;;5.00;;
705;SDS011;21234;48.690;9.016;2023-04-06T13:11:04;6.43;;;5.60;;
705;SDS011;21234;48.690;9.016;2023-04-06T13:13:33;6.83;;;4.90;;
705;SDS011;21234;48.690;9.016;2023-04-06T13:16:04;8.00;;;4.80;;
705;SDS011;21234;48.690;9.016;2023-04-06T13:18:36;5.83;;;5.17;;
705;SDS011;21234;48.690;9.016;2023-04-06T13:21:05;8.13;;;4.67;;
705;SDS011;21234;48.690;9.016;2023-04-06T13:23:32;4.80;;;4.33;;
705;SDS011;21234;48.690;9.016;2023-04-06T13:25:59;6.63;;;4.90;;
705;SDS011;21234;48.690;9.016;2023-04-06T13:28:28;7.60;;;4.77;;
705;SDS011;21234;48.690;9.016;2023-04-06T13:30:55;5.83;;;4.80;;
705;SDS011;21234;48.690;9.016;2023-04-06T13:33:24;6.23;;;4.90;;
705;SDS011;21234;48.690;9.016;2023-04-06T13:35:51;6.47;;;4.70;;
705;SDS011;21234;48.690;9.016;2023-04-06T13:38:19;6.37;;;5.00;;
705;SDS011;21234;48.690;9.016;2023-04-06T13:40:46;5.50;;;5.00;;
705;SDS011;21234;48.690;9.016;2023-04-06T13:43:15;7.20;;;5.10;;
705;SDS011;21234;48.690;9.016;2023-04-06T13:45:48;4.83;;;4.13;;
705;SDS011;21234;48.690;9.016;2023-04-06T13:48:15;8.17;;;5.17;;
705;SDS011;21234;48.690;9.016;2023-04-06T13:50:42;6.10;;;4.60;;
705;SDS011;21234;48.690;9.016;2023-04-06T13:53:09;6.53;;;5.37;;
705;SDS011;21234;48.690;9.016;2023-04-06T13:55:37;7.77;;;5.40;;
705;SDS011;21234;48.690;9.016;2023-04-06T13:58:04;6.30;;;5.67;;
705;SDS011;21234;48.690;9.016;2023-04-06T14:00:31;6.67;;;4.60;;
705;SDS011;21234;48.690;9.016;2023-04-06T14:02:57;5.73;;;4.43;;
705;SDS011;21234;48.690;9.016;2023-04-06T14:05:24;5.53;;;3.90;;
705;SDS011;21234;48.690;9.016;2023-04-06T14:07:52;6.43;;;4.70;;
705;SDS011;21234;48.690;9.016;2023-04-06T14:10:19;6.03;;;4.80;;
705;SDS011;21234;48.690;9.016;2023-04-06T14:12:50;5.83;;;4.80;;
705;SDS011;21234;48.690;9.016;2023-04-06T14:15:17;8.53;;;5.57;;
705;SDS011;21234;48.690;9.016;2023-04-06T14:17:44;7.43;;;5.60;;
705;SDS011;21234;48.690;9.016;2023-04-06T14:20:11;5.07;;;4.57;;
705;SDS011;21234;48.690;9.016;2023-04-06T14:22:40;5.03;;;4.53;;
705;SDS011;21234;48.690;9.016;2023-04-06T14:25:07;5.73;;;5.13;;
705;SDS011;21234;48.690;9.016;2023-04-06T14:27:36;5.20;;;4.70;;
705;SDS011;21234;48.690;9.016;2023-04-06T14:30:05;6.07;;;5.50;;
705;SDS011;21234;48.690;9.016;2023-04-06T14:32:33;6.70;;;5.10;;
705;SDS011;21234;48.690;9.016;2023-04-06T14:35:00;6.03;;;4.20;;
705;SDS011;21234;48.690;9.016;2023-04-06T14:37:27;9.03;;;4.53;;
705;SDS011;21234;48.690;9.016;2023-04-06T14:39:54;6.30;;;4.60;;
705;SDS011;21234;48.690;9.016;2023-04-06T14:42:20;6.40;;;5.70;;
705;SDS011;21234;48.690;9.016;2023-04-06T14:44:47;5.07;;;4.57;;
705;SDS011;21234;48.690;9.016;2023-04-06T14:47:15;5.43;;;4.80;;
705;SDS011;21234;48.690;9.016;2023-04-06T14:49:45;6.10;;;5.03;;
705;SDS011;21234;48.690;9.016;2023-04-06T14:52:12;5.43;;;4.50;;
705;SDS011;21234;48.690;9.016;2023-04-06T14:54:39;5.73;;;4.77;;
705;SDS011;21234;48.690;9.016;2023-04-06T14:57:06;6.40;;;5.23;;
705;SDS011;21234;48.690;9.016;2023-04-06T14:59:33;4.90;;;4.40;;
705;SDS011;21234;48.690;9.016;2023-04-06T15:02:00;5.77;;;5.10;;
705;SDS011;21234;48.690;9.016;2023-04-06T15:04:29;5.17;;;4.20;;
705;SDS011;21234;48.690;9.016;2023-04-06T15:06:56;5.73;;;4.77;;
705;SDS011;21234;48.690;9.016;2023-04-06T15:09:23;5.43;;;4.83;;
705;SDS011;21234;48.690;9.016;2023-04-06T15:11:50;5.70;;;4.53;;
705;SDS011;21234;48.690;9.016;2023-04-06T15:14:16;7.60;;;4.97;;